Time;durP1;ratioP1;P1;durP2;ratioP2;P2;SDS_P1;SDS_P2;PMS_P1;PMS_P2;Temp;Humidity;BMP_temperature;BMP_pressure;BME280_temperature;BME280_humidity;BME280_pressure;Samples;Min_cycle;Max_cycle;Signal;HPM_P1;HPM_P2
2022/05/05 00:01:52;;;;;;;11.80;10.18;;;10.40;99.90;;;;;;5016110;28;20375;-87
2022/05/05 00:04:39;;;;;;;14.07;10.65;;;10.50;99.90;;;;;;5017019;28;20184;-88
2022/05/05 00:07:28;;;;;;;11.85;10.27;;;10.40;99.90;;;;;;4990014;28;20062;-87
2022/05/05 00:16:28;;;;;;;15.85;11.25;;;10.00;99.90;;;;;;5007015;28;20101;-87
2022/05/05 00:19:15;;;;;;;14.82;11.70;;;9.80;99.90;;;;;;5020497;28;20046;-86
2022/05/05 00:22:04;;;;;;;13.65;11.80;;;9.70;99.90;;;;;;5008037;28;20065;-87
2022/05/05 00:24:53;;;;;;;12.73;11.27;;;9.70;99.90;;;;;;5029513;28;20058;-84
2022/05/05 00:27:40;;;;;;;13.82;12.32;;;9.60;99.90;;;;;;5029537;28;20046;-87
2022/05/05 00:30:29;;;;;;;15.43;12.38;;;9.50;99.90;;;;;;5027788;28;20042;-84
2022/05/05 00:33:16;;;;;;;14.75;11.93;;;9.40;99.90;;;;;;5028153;28;20042;-87
2022/05/05 00:36:04;;;;;;;19.70;14.68;;;9.40;99.90;;;;;;5008874;28;20050;-85
2022/05/05 00:38:51;;;;;;;17.25;13.98;;;9.40;99.90;;;;;;5018644;28;20149;-86
2022/05/05 00:41:42;;;;;;;18.75;14.02;;;9.50;99.90;;;;;;5019356;28;20045;-85
2022/05/05 00:44:29;;;;;;;18.77;14.13;;;9.50;99.90;;;;;;5007761;28;20482;-87
2022/05/05 00:47:18;;;;;;;18.23;13.63;;;9.60;99.90;;;;;;5015687;28;20130;-87
2022/05/05 00:50:07;;;;;;;16.67;13.88;;;9.70;99.90;;;;;;5018961;28;20108;-87
2022/05/05 00:52:59;;;;;;;18.25;12.65;;;9.70;99.90;;;;;;5017698;28;20050;-86
2022/05/05 00:55:50;;;;;;;17.33;14.53;;;9.70;99.90;;;;;;5017057;28;20175;-86
2022/05/05 00:58:39;;;;;;;17.27;14.55;;;9.70;99.90;;;;;;5014228;28;20086;-87
2022/05/05 01:01:26;;;;;;;19.17;14.80;;;9.70;99.90;;;;;;5007620;28;20139;-87
2022/05/05 01:04:16;;;;;;;18.27;14.20;;;9.70;99.90;;;;;;5010283;28;20046;-87
2022/05/05 01:07:04;;;;;;;16.23;13.50;;;9.70;99.90;;;;;;4992220;28;20046;-86
2022/05/05 01:09:52;;;;;;;15.27;12.57;;;9.70;99.90;;;;;;5013161;28;20061;-87
2022/05/05 01:12:39;;;;;;;17.13;12.70;;;9.60;99.90;;;;;;4995703;28;20050;-85
2022/05/05 01:15:29;;;;;;;19.90;13.85;;;9.60;99.90;;;;;;5006363;28;20061;-86
2022/05/05 01:18:16;;;;;;;18.17;13.25;;;9.60;99.90;;;;;;4999910;28;20136;-87
2022/05/05 01:21:06;;;;;;;17.27;13.00;;;9.60;99.90;;;;;;5012732;28;20066;-87
2022/05/05 01:23:54;;;;;;;19.92;13.43;;;9.60;99.90;;;;;;5014849;28;20068;-86
2022/05/05 01:29:49;;;;;;;20.45;15.65;;;9.60;99.90;;;;;;4998452;28;20432;-86
2022/05/05 01:32:37;;;;;;;22.20;15.73;;;9.60;99.90;;;;;;5008299;28;20060;-84
2022/05/05 01:35:24;;;;;;;19.20;14.75;;;9.60;99.90;;;;;;5006518;28;20121;-86
2022/05/05 01:38:13;;;;;;;17.77;14.60;;;9.50;99.90;;;;;;5000506;28;20150;-88
2022/05/05 01:41:00;;;;;;;16.52;14.70;;;9.50;99.90;;;;;;5000341;28;20088;-86
2022/05/05 01:43:48;;;;;;;15.13;13.52;;;9.40;99.90;;;;;;5001860;28;20135;-89
2022/05/05 01:46:35;;;;;;;19.90;14.68;;;9.30;99.90;;;;;;5017202;28;20044;-87
2022/05/05 01:49:22;;;;;;;19.80;15.68;;;9.20;99.90;;;;;;5005272;28;20046;-85
2022/05/05 01:52:13;;;;;;;16.60;14.13;;;9.20;99.90;;;;;;4994340;28;20124;-85
2022/05/05 01:55:00;;;;;;;20.00;14.95;;;9.20;99.90;;;;;;5018441;28;20073;-85
2022/05/05 01:57:48;;;;;;;19.30;15.18;;;9.00;99.90;;;;;;5024881;28;20034;-86
2022/05/05 02:00:38;;;;;;;18.95;15.93;;;8.90;99.90;;;;;;5011976;28;20141;-86
2022/05/05 02:03:25;;;;;;;17.95;15.07;;;8.80;99.90;;;;;;5014972;28;20057;-86
2022/05/05 02:06:17;;;;;;;20.80;16.45;;;8.80;99.90;;;;;;5014642;28;20042;-89
2022/05/05 02:09:04;;;;;;;24.02;15.63;;;8.60;99.90;;;;;;5006195;28;20053;-88
2022/05/05 02:11:53;;;;;;;20.88;16.58;;;8.60;99.90;;;;;;5009403;28;20057;-87
2022/05/05 02:14:40;;;;;;;22.42;17.00;;;8.40;99.90;;;;;;4988487;28;20124;-87
2022/05/05 02:17:27;;;;;;;27.42;18.13;;;8.40;99.90;;;;;;5018329;28;20141;-86
2022/05/05 02:20:15;;;;;;;25.35;19.17;;;8.30;99.90;;;;;;4996048;28;20456;-88
2022/05/05 02:23:04;;;;;;;23.25;18.45;;;8.30;99.90;;;;;;5013475;28;20043;-87
2022/05/05 02:25:53;;;;;;;27.10;19.63;;;8.30;99.90;;;;;;4999432;28;20648;-88
2022/05/05 02:28:42;;;;;;;29.67;18.98;;;8.30;99.90;;;;;;5000603;28;20153;-88
2022/05/05 02:31:29;;;;;;;25.45;20.05;;;8.30;99.90;;;;;;5012155;28;20085;-85
2022/05/05 02:34:17;;;;;;;25.40;20.15;;;8.50;99.90;;;;;;5013295;28;20121;-85
2022/05/05 02:40:10;;;;;;;36.33;24.25;;;8.80;99.90;;;;;;5013386;28;20042;-85
2022/05/05 02:42:59;;;;;;;35.38;24.02;;;8.90;99.90;;;;;;5012189;28;20053;-85
2022/05/05 02:45:46;;;;;;;34.17;23.05;;;8.90;99.90;;;;;;5009583;28;20117;-86
2022/05/05 02:48:33;;;;;;;26.13;19.40;;;8.90;99.90;;;;;;5008704;28;20045;-88
2022/05/05 02:51:23;;;;;;;22.42;17.58;;;9.00;99.90;;;;;;5009868;28;20085;-87
2022/05/05 02:57:23;;;;;;;21.20;16.42;;;9.00;99.90;;;;;;5011764;28;20049;-87
2022/05/05 03:00:12;;;;;;;23.02;17.35;;;9.10;99.90;;;;;;5013860;28;20061;-85
2022/05/05 03:03:04;;;;;;;21.73;16.90;;;9.10;99.90;;;;;;5004993;28;20052;-87
2022/05/05 03:05:52;;;;;;;16.03;13.60;;;9.20;99.90;;;;;;5014368;28;20042;-87
2022/05/05 03:08:39;;;;;;;22.90;18.08;;;9.20;99.90;;;;;;5010678;28;20144;-86
2022/05/05 03:11:26;;;;;;;20.80;17.65;;;9.10;99.90;;;;;;5006173;28;20046;-86
2022/05/05 03:14:13;;;;;;;25.70;18.27;;;9.00;99.90;;;;;;5013132;28;20125;-86
2022/05/05 03:17:01;;;;;;;21.90;17.80;;;9.00;99.90;;;;;;5012885;28;20454;-83
2022/05/05 03:19:50;;;;;;;24.42;17.40;;;9.10;99.90;;;;;;5015010;28;20533;-89
2022/05/05 03:22:38;;;;;;;21.77;17.25;;;9.20;99.90;;;;;;5013339;28;20042;-87
2022/05/05 03:25:26;;;;;;;21.10;16.20;;;9.20;99.90;;;;;;5012884;28;20050;-87
2022/05/05 03:28:14;;;;;;;22.40;17.23;;;9.20;99.90;;;;;;5009514;28;20192;-88
2022/05/05 03:31:01;;;;;;;21.88;16.15;;;9.10;99.90;;;;;;5007546;28;20065;-87
2022/05/05 03:33:50;;;;;;;21.23;15.75;;;9.10;99.90;;;;;;4994771;28;20141;-86
2022/05/05 03:36:40;;;;;;;20.42;16.40;;;9.00;99.90;;;;;;5006176;28;20045;-86
2022/05/05 03:39:27;;;;;;;21.67;16.50;;;9.00;99.90;;;;;;4997413;28;20042;-86
2022/05/05 03:42:15;;;;;;;20.02;17.00;;;9.00;99.90;;;;;;5012732;28;20042;-88
2022/05/05 03:45:02;;;;;;;22.42;16.85;;;9.00;99.90;;;;;;5015330;28;20046;-86
2022/05/05 03:47:49;;;;;;;21.42;16.80;;;9.10;99.90;;;;;;5000083;28;20330;-87
2022/05/05 03:50:42;;;;;;;23.13;17.73;;;9.10;99.90;;;;;;5014491;28;20042;-87
2022/05/05 03:53:32;;;;;;;21.40;16.88;;;9.10;99.90;;;;;;5024114;28;20041;-86
2022/05/05 03:56:19;;;;;;;20.85;15.50;;;9.00;99.90;;;;;;5009048;28;20129;-86
2022/05/05 03:59:06;;;;;;;21.30;16.00;;;9.10;99.90;;;;;;5015758;28;20041;-86
2022/05/05 04:01:54;;;;;;;20.25;16.25;;;9.00;99.90;;;;;;5024140;28;20042;-88
2022/05/05 04:04:41;;;;;;;22.52;18.58;;;8.90;99.90;;;;;;5009686;28;20122;-88
2022/05/05 04:07:30;;;;;;;23.73;18.55;;;8.90;99.90;;;;;;5023689;28;20046;-88
2022/05/05 04:10:18;;;;;;;23.48;19.45;;;8.80;99.90;;;;;;5029191;28;20041;-84
2022/05/05 04:13:05;;;;;;;22.23;18.40;;;8.80;99.90;;;;;;5028275;28;20049;-86
2022/05/05 04:15:53;;;;;;;25.40;19.17;;;8.80;99.90;;;;;;5008266;28;20047;-87
2022/05/05 04:18:40;;;;;;;24.55;18.52;;;8.80;99.90;;;;;;5001428;28;20185;-80
2022/05/05 04:21:30;;;;;;;24.02;20.00;;;8.80;99.90;;;;;;5008387;28;20134;-87
2022/05/05 04:24:17;;;;;;;23.85;18.27;;;8.80;99.90;;;;;;5010045;28;20354;-83
2022/05/05 04:27:07;;;;;;;24.00;19.13;;;8.80;99.90;;;;;;5028115;28;20038;-87
2022/05/05 04:29:54;;;;;;;22.85;18.55;;;8.80;99.90;;;;;;4999462;28;20054;-87
2022/05/05 04:32:43;;;;;;;23.02;18.55;;;8.90;99.90;;;;;;5007201;28;20244;-87
2022/05/05 04:35:33;;;;;;;24.42;18.65;;;8.90;99.90;;;;;;5004865;28;20109;-85
2022/05/05 04:38:25;;;;;;;24.88;18.10;;;8.90;99.90;;;;;;5012791;28;20046;-85
2022/05/05 04:41:13;;;;;;;27.08;19.13;;;9.00;99.90;;;;;;5004150;28;20525;-84
2022/05/05 04:44:02;;;;;;;25.00;17.02;;;9.00;99.90;;;;;;5016560;28;20045;-87
2022/05/05 04:46:49;;;;;;;29.42;21.15;;;9.00;99.90;;;;;;5016868;28;20041;-85
2022/05/05 04:49:37;;;;;;;30.85;20.90;;;8.90;99.90;;;;;;5010834;28;20038;-88
2022/05/05 04:52:25;;;;;;;24.83;18.75;;;8.70;99.90;;;;;;5015576;28;20049;-87
2022/05/05 04:55:12;;;;;;;23.38;18.38;;;8.70;99.90;;;;;;5021170;28;20046;-86
2022/05/05 04:58:02;;;;;;;25.50;20.25;;;8.80;99.90;;;;;;5006931;28;20049;-87
2022/05/05 05:00:49;;;;;;;27.70;20.23;;;8.90;99.90;;;;;;4995656;28;20038;-88
2022/05/05 05:03:36;;;;;;;24.88;20.23;;;9.00;99.90;;;;;;4998359;28;20118;-86
2022/05/05 05:06:24;;;;;;;23.23;18.67;;;9.20;99.90;;;;;;4995341;28;20052;-84
2022/05/05 05:09:15;;;;;;;22.33;18.17;;;9.20;99.90;;;;;;5015836;28;20049;-88
2022/05/05 05:12:03;;;;;;;21.52;17.85;;;9.50;99.90;;;;;;5017223;28;20112;-85
2022/05/05 05:14:50;;;;;;;21.58;17.17;;;9.50;99.90;;;;;;5007430;28;20046;-83
2022/05/05 05:17:38;;;;;;;19.67;15.95;;;9.70;99.90;;;;;;5015179;28;20136;-84
2022/05/05 05:20:27;;;;;;;21.13;15.50;;;9.80;99.90;;;;;;5009249;28;20046;-85
2022/05/05 05:23:17;;;;;;;19.58;15.10;;;9.90;99.90;;;;;;5011970;28;20061;-85
2022/05/05 05:26:04;;;;;;;20.65;16.33;;;10.00;99.90;;;;;;5023701;28;20038;-87
2022/05/05 05:28:51;;;;;;;23.30;17.48;;;10.10;99.90;;;;;;5019927;28;20553;-86
2022/05/05 05:31:38;;;;;;;24.67;17.25;;;10.20;99.90;;;;;;5014754;28;20046;-84
2022/05/05 05:34:26;;;;;;;18.23;14.70;;;10.30;99.90;;;;;;5009135;28;20042;-84
2022/05/05 05:37:16;;;;;;;23.00;15.95;;;10.40;99.90;;;;;;5011651;28;20058;-85
2022/05/05 05:40:06;;;;;;;20.50;14.77;;;10.50;99.90;;;;;;5003836;28;20467;-83
2022/05/05 05:43:27;;;;;;;18.52;15.27;;;10.70;99.90;;;;;;5007251;28;20133;-85
2022/05/05 05:46:31;;;;;;;18.23;14.45;;;10.80;99.90;;;;;;4950607;28;20119;-86
2022/05/05 05:49:37;;;;;;;17.83;14.38;;;11.10;99.90;;;;;;4965303;28;20058;-82
2022/05/05 05:52:27;;;;;;;15.40;12.93;;;11.40;99.90;;;;;;5011068;28;20065;-84
2022/05/05 05:55:15;;;;;;;16.13;11.52;;;11.70;99.90;;;;;;4996101;28;20366;-85
2022/05/05 05:58:05;;;;;;;14.38;12.05;;;11.90;99.90;;;;;;5013040;28;20059;-86
2022/05/05 06:00:55;;;;;;;16.45;12.40;;;12.00;99.90;;;;;;5003782;28;20374;-85
2022/05/05 06:03:56;;;;;;;15.15;11.75;;;12.10;99.90;;;;;;5004566;28;20105;-84
2022/05/05 06:06:55;;;;;;;16.65;13.07;;;12.10;99.90;;;;;;5009087;28;20134;-80
2022/05/05 06:10:03;;;;;;;15.88;12.63;;;11.90;99.90;;;;;;4966351;28;20041;-86
2022/05/05 06:17:08;;;;;;;12.85;10.93;;;12.10;99.90;;;;;;4937933;29;20067;-87
2022/05/05 06:20:34;;;;;;;;;;;;;;;;;;;;;
2022/05/05 06:23:40;;;;;;;12.13;9.98;;;12.30;99.90;;;;;;5004604;28;20458;-87
2022/05/05 06:27:09;;;;;;;14.98;10.88;;;12.60;99.90;;;;;;4993811;28;20046;-88
2022/05/05 06:30:38;;;;;;;13.57;10.27;;;12.60;99.90;;;;;;5009228;28;20145;-86
2022/05/05 06:33:49;;;;;;;10.05;8.32;;;12.50;99.90;;;;;;4989021;28;20363;-86
2022/05/05 06:40:30;;;;;;;10.30;8.50;;;12.60;99.90;;;;;;5019166;28;20618;-79
2022/05/05 06:47:29;;;;;;;8.48;7.32;;;12.90;99.90;;;;;;5011469;28;20038;-88
2022/05/05 06:50:28;;;;;;;9.27;7.40;;;12.90;99.90;;;;;;4989682;28;20042;-85
2022/05/05 06:53:19;;;;;;;11.05;6.88;;;12.90;99.90;;;;;;5011469;28;20121;-88
2022/05/05 06:56:23;;;;;;;;;;;;;;;;;;;;;
2022/05/05 06:59:44;;;;;;;;;;;;;;;;;;;;;
2022/05/05 07:02:55;;;;;;;12.13;7.90;;;12.90;99.90;;;;;;5019388;28;20048;-85
2022/05/05 07:21:10;;;;;;;8.25;7.07;;;13.60;99.90;;;;;;6046520;23;20049;31
2022/05/05 07:23:59;;;;;;;11.35;7.45;;;13.70;99.90;;;;;;4984336;28;20013;-87
2022/05/05 07:27:16;;;;;;;9.35;6.97;;;13.80;99.90;;;;;;4975173;28;20460;-86
2022/05/05 07:30:25;;;;;;;9.93;6.82;;;14.00;99.90;;;;;;4978698;28;20038;-90
2022/05/05 07:33:13;;;;;;;11.63;6.90;;;14.10;99.90;;;;;;4982759;28;20049;-88
2022/05/05 07:36:30;;;;;;;10.27;7.50;;;14.20;99.90;;;;;;4975314;28;20046;-90
2022/05/05 07:39:27;;;;;;;13.55;7.70;;;14.10;99.90;;;;;;4977194;28;20043;-88
2022/05/05 07:42:15;;;;;;;9.98;7.03;;;14.10;99.90;;;;;;4984548;28;20062;-90
2022/05/05 07:45:02;;;;;;;9.60;8.20;;;14.10;99.90;;;;;;4979229;28;20042;-89
2022/05/05 07:48:00;;;;;;;14.00;8.23;;;14.10;99.90;;;;;;4963299;28;20121;-89
2022/05/05 07:51:25;;;;;;;9.60;7.28;;;14.30;99.90;;;;;;4978431;28;20057;-87
2022/05/05 07:54:36;;;;;;;10.68;8.07;;;14.40;99.90;;;;;;4981466;28;20133;-87
2022/05/05 07:57:23;;;;;;;20.52;8.18;;;14.50;99.90;;;;;;4975354;28;20047;-87
2022/05/05 08:00:14;;;;;;;12.90;7.80;;;14.60;99.90;;;;;;4980964;28;20093;-88
2022/05/05 08:03:09;;;;;;;12.00;8.52;;;14.60;99.90;;;;;;4979682;28;20050;-86
2022/05/05 08:05:58;;;;;;;15.50;9.43;;;14.90;99.90;;;;;;4980991;28;20364;-88
2022/05/05 08:08:48;;;;;;;10.43;7.88;;;14.90;99.90;;;;;;4983067;28;20121;-88
2022/05/05 08:11:36;;;;;;;15.65;9.40;;;15.00;99.90;;;;;;4972355;28;20038;-87
2022/05/05 08:14:32;;;;;;;17.88;8.60;;;15.30;99.90;;;;;;4982681;28;20061;-90
2022/05/05 08:28:40;;;;;;;16.00;9.82;;;15.50;99.90;;;;;;4924384;29;20398;-85
2022/05/05 08:31:54;;;;;;;17.20;9.93;;;15.50;99.90;;;;;;4926170;29;20044;-85
2022/05/05 08:35:24;;;;;;;11.88;10.30;;;15.60;99.90;;;;;;4882526;29;20439;-86
2022/05/05 08:38:14;;;;;;;11.70;9.95;;;15.80;99.90;;;;;;4880354;29;20059;-84
2022/05/05 08:42:07;;;;;;;14.20;10.00;;;15.60;99.90;;;;;;4892081;29;20139;-81
2022/05/05 08:52:04;;;;;;;20.08;11.35;;;14.90;99.90;;;;;;4886636;29;20037;-88
2022/05/05 08:54:53;;;;;;;18.38;11.85;;;14.60;99.90;;;;;;4876612;29;20453;-88
2022/05/05 09:02:21;;;;;;;19.52;12.50;;;14.30;99.90;;;;;;4902816;29;20044;-89
2022/05/05 09:06:11;;;;;;;17.05;12.32;;;14.30;99.90;;;;;;4919206;29;20396;-87
2022/05/05 09:13:52;;;;;;;21.45;13.93;;;14.40;99.90;;;;;;4957002;28;20042;-89
2022/05/05 09:20:36;;;;;;;16.05;13.02;;;14.30;99.90;;;;;;4948023;28;20047;-90
2022/05/05 09:26:48;;;;;;;17.90;13.65;;;14.40;99.90;;;;;;4992792;28;20050;-88
2022/05/05 09:29:39;;;;;;;19.65;13.32;;;14.50;99.90;;;;;;4991196;28;20046;-89
2022/05/05 09:32:30;;;;;;;23.67;15.52;;;14.50;99.90;;;;;;4986223;28;20632;-84
2022/05/05 09:35:18;;;;;;;18.95;13.02;;;14.60;99.90;;;;;;4983294;28;20046;-88
2022/05/05 09:38:05;;;;;;;19.63;13.80;;;14.70;99.90;;;;;;4991172;28;20047;-85
2022/05/05 09:45:34;;;;;;;21.40;14.45;;;14.50;99.90;;;;;;4978058;28;20035;-89
2022/05/05 09:48:37;;;;;;;22.60;14.40;;;14.60;99.90;;;;;;4982581;28;20845;-85
2022/05/05 09:58:35;;;;;;;22.48;15.60;;;14.30;99.90;;;;;;4977644;28;20149;-87
2022/05/05 10:01:50;;;;;;;27.67;18.52;;;14.30;99.90;;;;;;4978540;28;20393;-87
2022/05/05 10:08:48;;;;;;;22.60;16.77;;;14.20;99.90;;;;;;4975197;28;20023;-92
2022/05/05 10:11:36;;;;;;;24.23;16.95;;;14.20;99.90;;;;;;4965115;28;20047;-86
2022/05/05 10:14:27;;;;;;;22.45;18.27;;;14.10;99.90;;;;;;4963472;28;20391;-84
2022/05/05 10:17:16;;;;;;;24.88;18.70;;;14.00;99.90;;;;;;4977089;28;20039;-86
2022/05/05 10:20:12;;;;;;;21.67;17.17;;;14.10;99.90;;;;;;4972408;28;20054;-85
2022/05/05 10:23:14;;;;;;;22.88;17.63;;;14.00;99.90;;;;;;4970351;28;20050;-85
2022/05/05 10:26:46;;;;;;;25.55;16.98;;;14.10;99.90;;;;;;4973451;28;20429;-83
2022/05/05 10:29:49;;;;;;;25.05;16.50;;;14.20;99.90;;;;;;4975969;28;20057;-85
2022/05/05 10:32:59;;;;;;;21.92;15.98;;;14.40;99.90;;;;;;4904468;28;20043;-82
2022/05/05 10:35:47;;;;;;;22.80;16.30;;;14.60;99.90;;;;;;4952898;28;20040;-85
2022/05/05 10:38:42;;;;;;;21.40;15.93;;;14.60;99.90;;;;;;4952493;28;20129;-86
2022/05/05 10:41:40;;;;;;;21.77;16.42;;;14.70;99.90;;;;;;4953260;28;20047;-85
2022/05/05 10:44:29;;;;;;;22.40;16.83;;;14.80;99.90;;;;;;4952115;28;20039;-84
2022/05/05 10:47:16;;;;;;;23.33;17.40;;;14.80;99.90;;;;;;4952787;28;20133;-82
2022/05/05 10:50:04;;;;;;;23.38;18.38;;;14.50;99.90;;;;;;4951452;28;20039;-83
2022/05/05 10:53:04;;;;;;;24.80;18.52;;;14.30;99.90;;;;;;4944614;28;20051;-84
2022/05/05 10:55:51;;;;;;;26.67;20.02;;;14.00;99.90;;;;;;4953506;28;20269;-84
2022/05/05 10:59:11;;;;;;;25.70;20.85;;;13.80;99.90;;;;;;4952434;28;20273;-87
2022/05/05 11:01:59;;;;;;;32.03;22.65;;;13.90;99.90;;;;;;4956068;28;20130;-89
2022/05/05 11:05:27;;;;;;;28.52;22.70;;;13.80;99.90;;;;;;4981380;28;20133;-91
2022/05/05 11:12:53;;;;;;;32.22;25.02;;;13.90;99.90;;;;;;4971422;28;20547;-88
2022/05/05 11:22:20;;;;;;;39.28;29.00;;;13.80;99.90;;;;;;4937780;29;20108;-88
2022/05/05 11:25:10;;;;;;;38.65;30.23;;;13.70;99.90;;;;;;4950124;29;20058;-89
2022/05/05 11:37:24;;;;;;;44.88;31.05;;;13.50;99.90;;;;;;4814985;29;20045;-90
2022/05/05 11:40:42;;;;;;;37.30;27.08;;;13.60;99.90;;;;;;4820306;29;20188;-84
2022/05/05 11:46:50;;;;;;;38.45;27.90;;;14.00;99.90;;;;;;4822157;29;20050;-90
2022/05/05 11:49:53;;;;;;;36.42;25.05;;;14.40;99.90;;;;;;4819979;29;20046;-85
2022/05/05 11:52:42;;;;;;;38.20;26.67;;;14.60;99.90;;;;;;4819084;29;20483;-87
2022/05/05 11:55:34;;;;;;;30.90;25.67;;;14.80;99.90;;;;;;4845387;29;20096;-91
2022/05/05 12:02:25;;;;;;;31.58;23.63;;;15.20;99.90;;;;;;4865192;29;20243;-87
2022/05/05 12:09:34;;;;;;;26.75;18.65;;;16.90;99.90;;;;;;4897063;29;20028;-87
2022/05/05 12:12:31;;;;;;;28.88;17.88;;;18.80;99.90;;;;;;4921398;28;20047;-91
2022/05/05 12:15:20;;;;;;;22.40;15.77;;;18.70;99.90;;;;;;4981769;28;20055;-85
2022/05/05 12:18:15;;;;;;;21.27;16.70;;;18.70;99.90;;;;;;4981756;28;20387;-85
2022/05/05 12:21:22;;;;;;;19.42;16.08;;;19.10;99.90;;;;;;4979483;28;20366;-90
2022/05/05 12:48:55;;;;;;;25.75;20.58;;;17.00;99.90;;;;;;4995121;28;20099;-87
2022/05/05 13:20:31;;;;;;;;;;;;;;;;;;;;;
2022/05/05 13:23:16;;;;;;;;;;;22.20;98.40;;;;;;4959115;28;20056;-87
2022/05/05 13:26:07;;;;;;;18.42;12.98;;;22.40;92.30;;;;;;5019328;28;19921;-89
2022/05/05 13:29:00;;;;;;;17.17;13.13;;;22.90;84.90;;;;;;5029493;28;20642;-83
2022/05/05 13:31:48;;;;;;;18.92;15.45;;;22.50;83.40;;;;;;5029418;28;20107;-85
2022/05/05 13:34:36;;;;;;;19.98;14.45;;;21.60;89.50;;;;;;5028680;28;20132;-85
2022/05/05 13:37:23;;;;;;;19.02;13.80;;;20.90;92.10;;;;;;5033335;28;20239;-85
2022/05/05 13:40:37;;;;;;;19.35;15.60;;;20.50;92.70;;;;;;5026103;28;20094;-84
2022/05/05 13:43:43;;;;;;;18.30;16.00;;;20.20;95.40;;;;;;5032205;28;20136;-86
2022/05/05 13:51:08;;;;;;;18.80;15.40;;;19.20;97.60;;;;;;5028809;28;20022;-87
2022/05/05 13:54:01;;;;;;;17.25;14.50;;;19.10;99.90;;;;;;5029645;28;20049;-86
2022/05/05 13:56:59;;;;;;;19.13;16.42;;;19.30;98.60;;;;;;5030792;28;20436;-83
2022/05/05 13:59:50;;;;;;;25.08;17.10;;;19.10;99.10;;;;;;5022878;28;20061;-83
2022/05/05 14:13:58;;;;;;;18.73;15.63;;;19.50;95.60;;;;;;5033746;28;20045;-89
2022/05/05 14:16:46;;;;;;;20.08;15.00;;;19.10;98.80;;;;;;5031405;28;20046;-86
2022/05/05 14:19:33;;;;;;;26.50;16.38;;;19.00;99.20;;;;;;5020370;28;20041;-88
2022/05/05 14:22:21;;;;;;;18.50;14.80;;;19.40;99.90;;;;;;5023665;28;20045;-87
2022/05/05 14:25:12;;;;;;;26.27;15.13;;;19.80;97.40;;;;;;5024692;28;20391;-84
2022/05/05 14:27:59;;;;;;;21.45;15.18;;;19.40;96.80;;;;;;5029505;28;20052;-84
2022/05/05 14:30:49;;;;;;;17.77;14.32;;;19.30;98.30;;;;;;5023232;28;20041;-86
2022/05/05 14:33:36;;;;;;;16.88;14.60;;;19.00;98.20;;;;;;5015254;28;20072;-84
2022/05/05 14:36:29;;;;;;;16.15;14.20;;;18.70;99.80;;;;;;5015847;28;20045;-86
2022/05/05 14:39:16;;;;;;;20.50;14.00;;;18.30;98.30;;;;;;5028974;28;20061;-85
2022/05/05 14:42:05;;;;;;;20.25;15.10;;;18.10;99.90;;;;;;5025677;28;20124;-81
2022/05/05 14:44:52;;;;;;;18.55;13.90;;;17.80;99.90;;;;;;5009635;28;20038;-83
2022/05/05 14:47:42;;;;;;;21.98;15.48;;;17.50;99.90;;;;;;5022464;28;20057;-82
2022/05/05 14:50:29;;;;;;;20.33;15.23;;;17.20;99.90;;;;;;5016776;28;20125;-83
2022/05/05 14:53:19;;;;;;;19.02;14.68;;;17.20;99.90;;;;;;5030003;28;20073;-84
2022/05/05 14:56:06;;;;;;;20.45;15.80;;;17.60;99.90;;;;;;5026333;28;20149;-82
2022/05/05 14:59:00;;;;;;;22.35;16.20;;;17.90;99.90;;;;;;5026916;28;20166;-84
2022/05/05 15:01:48;;;;;;;20.30;16.38;;;17.90;99.90;;;;;;5031227;28;20054;-85
2022/05/05 15:04:36;;;;;;;19.65;16.60;;;17.80;99.90;;;;;;5024372;28;20045;-83
2022/05/05 15:07:24;;;;;;;20.50;17.38;;;17.50;99.90;;;;;;5022556;28;20045;-82
2022/05/05 15:10:12;;;;;;;21.45;17.70;;;17.20;99.90;;;;;;5032067;28;20101;-83
2022/05/05 15:13:01;;;;;;;29.75;21.15;;;17.10;99.90;;;;;;5032837;28;20480;-81
2022/05/05 15:15:51;;;;;;;26.73;20.00;;;16.70;99.90;;;;;;5023486;28;20041;-80
2022/05/05 15:18:39;;;;;;;24.20;20.20;;;16.60;99.90;;;;;;5025296;28;20120;-83
2022/05/05 15:21:26;;;;;;;28.45;21.02;;;16.30;99.90;;;;;;5016830;28;20120;-84
2022/05/05 15:24:14;;;;;;;25.00;19.90;;;16.20;99.90;;;;;;5025072;28;20049;-83
2022/05/05 15:27:02;;;;;;;30.00;20.67;;;16.10;99.90;;;;;;5028485;28;20116;-84
2022/05/05 15:29:49;;;;;;;27.73;20.90;;;16.00;99.90;;;;;;5029617;28;20497;-84
2022/05/05 15:32:37;;;;;;;32.75;22.02;;;15.60;99.90;;;;;;5024593;28;20099;-83
2022/05/05 15:35:26;;;;;;;31.65;22.35;;;15.30;99.90;;;;;;5027362;28;20432;-83
2022/05/05 15:38:16;;;;;;;36.05;23.00;;;15.10;99.90;;;;;;5023589;28;20403;-83
2022/05/05 15:41:03;;;;;;;30.67;22.45;;;15.00;99.90;;;;;;5031585;28;20132;-81
2022/05/05 15:43:51;;;;;;;32.40;22.25;;;14.90;99.90;;;;;;5030447;28;20037;-82
2022/05/05 15:46:41;;;;;;;32.33;22.15;;;15.10;99.90;;;;;;5022165;28;20041;-85
2022/05/05 15:49:28;;;;;;;30.75;20.65;;;15.10;99.90;;;;;;5018365;28;20046;-81
2022/05/05 15:52:15;;;;;;;30.45;20.15;;;15.10;99.90;;;;;;5025654;28;20054;-85
2022/05/05 15:55:09;;;;;;;29.85;19.98;;;15.10;99.90;;;;;;5025857;28;20128;-82
2022/05/05 15:57:57;;;;;;;28.80;21.23;;;15.20;99.90;;;;;;5024343;28;20058;-81
2022/05/05 16:00:48;;;;;;;29.00;22.40;;;15.20;99.90;;;;;;5026697;28;20049;-83
2022/05/05 16:03:44;;;;;;;34.40;23.58;;;15.20;99.90;;;;;;5022222;28;20057;-81
2022/05/05 16:06:35;;;;;;;37.70;23.60;;;15.30;99.90;;;;;;5031169;28;20041;-80
2022/05/05 16:09:27;;;;;;;32.92;23.42;;;15.50;99.90;;;;;;5029125;28;20753;-84
2022/05/05 16:12:14;;;;;;;37.53;25.23;;;15.40;99.90;;;;;;5030229;28;20060;-80
2022/05/05 16:15:07;;;;;;;40.15;25.67;;;15.10;99.90;;;;;;5017546;28;20050;-81
2022/05/05 16:17:55;;;;;;;39.22;26.85;;;15.00;99.90;;;;;;5023502;28;20053;-80
2022/05/05 16:20:43;;;;;;;39.13;27.48;;;14.90;99.90;;;;;;5020998;28;20046;-81
2022/05/05 16:23:30;;;;;;;40.90;29.33;;;14.80;99.90;;;;;;5033151;28;20061;-82
2022/05/05 16:32:30;;;;;;;43.83;29.70;;;14.30;99.90;;;;;;5018914;28;20449;-83
2022/05/05 16:35:25;;;;;;;45.55;31.05;;;14.30;99.90;;;;;;5020518;28;20324;-81
2022/05/05 16:38:15;;;;;;;44.28;31.30;;;14.30;99.90;;;;;;5036194;28;20076;-81
2022/05/05 16:41:07;;;;;;;47.55;31.58;;;14.40;99.90;;;;;;5024240;28;20045;-83
2022/05/05 16:43:54;;;;;;;51.80;34.40;;;14.30;99.90;;;;;;5033718;28;20438;-81
2022/05/05 16:46:46;;;;;;;50.30;33.22;;;14.20;99.90;;;;;;5030845;28;20056;-80
2022/05/05 16:49:38;;;;;;;51.60;33.58;;;14.20;99.90;;;;;;5027873;28;20044;-82
2022/05/05 16:52:27;;;;;;;49.08;33.17;;;14.20;99.90;;;;;;5028197;28;20332;-82
2022/05/05 16:55:19;;;;;;;57.65;34.97;;;14.20;99.90;;;;;;5034615;28;20133;-81
2022/05/05 16:58:06;;;;;;;49.72;32.38;;;14.10;99.90;;;;;;5034079;28;20498;-83
2022/05/05 17:00:54;;;;;;;47.10;33.92;;;14.10;99.90;;;;;;5031702;28;20049;-81
2022/05/05 17:03:45;;;;;;;52.85;33.65;;;14.00;99.90;;;;;;5034857;28;20053;-82
2022/05/05 17:06:33;;;;;;;57.97;34.88;;;14.00;99.90;;;;;;5034187;28;20195;-80
2022/05/05 17:09:21;;;;;;;50.33;33.65;;;13.90;99.90;;;;;;5025833;28;20107;-83
2022/05/05 17:12:11;;;;;;;47.55;33.08;;;13.80;99.90;;;;;;5033662;28;20061;-84
2022/05/05 17:14:58;;;;;;;51.65;34.05;;;13.70;99.90;;;;;;5027724;28;20458;-81
2022/05/05 17:17:46;;;;;;;52.92;34.28;;;13.50;99.90;;;;;;5027984;28;20056;-81
2022/05/05 17:20:36;;;;;;;54.63;34.58;;;13.40;99.90;;;;;;5036504;28;20045;-82
2022/05/05 17:23:25;;;;;;;49.38;33.67;;;13.20;99.90;;;;;;5027068;28;20049;-82
2022/05/05 17:26:15;;;;;;;48.42;33.10;;;13.10;99.90;;;;;;5035411;28;20415;-81
2022/05/05 17:29:03;;;;;;;47.20;33.70;;;13.10;99.90;;;;;;5014853;28;20164;-81
2022/05/05 17:31:50;;;;;;;45.83;31.27;;;13.00;99.90;;;;;;5037075;28;20099;-83
2022/05/05 17:34:38;;;;;;;50.53;35.00;;;12.90;99.90;;;;;;5036530;28;20064;-81
2022/05/05 17:37:27;;;;;;;47.05;33.22;;;12.80;99.90;;;;;;5019918;28;20049;-82
2022/05/05 17:40:17;;;;;;;53.10;33.72;;;12.70;99.90;;;;;;5027762;28;20046;-82
2022/05/05 17:43:05;;;;;;;50.10;31.75;;;12.60;99.90;;;;;;5013186;28;20056;-83
2022/05/05 17:52:04;;;;;;;54.92;33.55;;;12.50;99.90;;;;;;5017784;28;20041;-82
2022/05/05 17:54:51;;;;;;;51.65;32.85;;;12.40;99.90;;;;;;5033203;28;20061;-81
2022/05/05 17:57:38;;;;;;;52.55;31.05;;;12.30;99.90;;;;;;5010304;28;20053;-80
2022/05/05 18:00:27;;;;;;;46.80;30.40;;;12.30;99.90;;;;;;5031059;28;20049;-81
2022/05/05 18:03:15;;;;;;;51.08;32.17;;;12.20;99.90;;;;;;5033453;28;20458;-81
2022/05/05 18:06:04;;;;;;;44.35;29.95;;;12.10;99.90;;;;;;5029690;28;20041;-82
2022/05/05 18:08:54;;;;;;;46.80;28.95;;;12.10;99.90;;;;;;5033035;28;20068;-81
2022/05/05 18:11:41;;;;;;;47.28;29.85;;;12.00;99.90;;;;;;5028422;28;20419;-80